createdAt,value
2023-01-17T00:07:42.709Z,3.45
2023-01-17T00:12:47.752Z,4.72
2023-01-17T00:17:50.658Z,1.38
2023-01-17T00:23:12.229Z,0.85
2023-01-17T00:28:13.595Z,0.70
2023-01-17T00:33:14.959Z,2.03
2023-01-17T00:38:18.368Z,0.90
2023-01-17T00:43:39.287Z,1.75
2023-01-17T00:48:59.873Z,0.50
2023-01-17T00:54:21.514Z,0.55
2023-01-17T00:59:41.531Z,1.63
2023-01-17T01:05:01.385Z,1.70
2023-01-17T01:10:23.244Z,2.03
2023-01-17T01:15:43.116Z,2.92
2023-01-17T01:21:03.015Z,3.30
2023-01-17T01:26:24.432Z,2.25
2023-01-17T01:31:44.296Z,1.67
2023-01-17T01:36:48.811Z,1.63
2023-01-17T01:41:52.600Z,4.40
2023-01-17T01:46:55.300Z,2.20
2023-01-17T01:51:59.613Z,0.67
2023-01-17T01:57:04.809Z,1.55
2023-01-17T02:02:08.009Z,1.40
2023-01-17T02:07:13.310Z,2.63
2023-01-17T02:12:18.338Z,0.68
2023-01-17T02:17:25.336Z,1.15
2023-01-17T02:22:41.227Z,2.67
2023-01-17T02:27:53.862Z,1.42
2023-01-17T02:33:06.903Z,0.63
2023-01-17T02:38:14.194Z,0.93
2023-01-17T02:43:17.431Z,2.72
2023-01-17T02:48:23.822Z,1.65
2023-01-17T02:53:31.977Z,1.75
2023-01-17T02:58:42.005Z,0.40
2023-01-17T03:03:48.795Z,0.95
2023-01-17T03:08:52.167Z,0.73
2023-01-17T03:13:55.858Z,1.85
2023-01-17T03:18:59.717Z,0.30
2023-01-17T03:24:03.022Z,0.68
2023-01-17T03:29:05.512Z,2.03
2023-01-17T03:34:09.374Z,1.60
2023-01-17T03:39:11.929Z,2.67
2023-01-17T03:44:14.474Z,1.37
2023-01-17T03:49:18.374Z,2.60
2023-01-17T03:54:20.844Z,3.33
2023-01-17T03:59:23.368Z,6.13
2023-01-17T04:04:27.220Z,7.05
2023-01-17T04:09:33.951Z,3.78
2023-01-17T04:14:36.485Z,2.78
2023-01-17T04:19:41.055Z,8.88
2023-01-17T04:24:43.490Z,2.45
2023-01-17T04:29:46.838Z,4.18
2023-01-17T04:34:50.666Z,4.40
2023-01-17T04:39:53.152Z,14.05
2023-01-17T04:44:55.800Z,4.95
2023-01-17T04:49:59.619Z,5.53
2023-01-17T04:55:02.029Z,8.10
2023-01-17T05:00:04.770Z,5.70
2023-01-17T05:05:13.272Z,11.53
2023-01-17T05:10:15.745Z,3.97
2023-01-17T05:15:18.266Z,4.85
2023-01-17T05:20:22.458Z,6.25
2023-01-17T05:25:25.385Z,9.95
2023-01-17T05:30:28.141Z,5.77
2023-01-17T05:35:33.588Z,1.60
2023-01-17T05:40:37.046Z,4.03
2023-01-17T05:45:40.674Z,7.90
2023-01-17T05:55:47.777Z,2.72
2023-01-17T06:00:50.950Z,8.57
2023-01-17T06:05:53.465Z,10.52
2023-01-17T06:11:01.474Z,12.25
2023-01-17T06:16:04.337Z,8.95
2023-01-17T06:21:07.095Z,13.47
2023-01-17T06:26:11.533Z,8.40
2023-01-17T06:31:14.094Z,9.32
2023-01-17T06:36:16.638Z,18.88
2023-01-17T06:41:20.748Z,14.48
2023-01-17T06:46:23.693Z,11.60
2023-01-17T06:51:26.344Z,17.50
2023-01-17T06:56:32.878Z,20.97
2023-01-17T07:01:35.741Z,19.95
2023-01-17T07:06:38.344Z,23.77
2023-01-17T07:11:42.176Z,28.77
2023-01-17T07:16:46.071Z,29.83
2023-01-17T07:21:51.486Z,30.92
2023-01-17T07:26:55.298Z,27.50
2023-01-17T07:31:57.837Z,28.23
2023-01-17T07:37:00.372Z,37.25
2023-01-17T07:42:04.177Z,30.80
2023-01-17T07:47:06.733Z,34.15
2023-01-17T07:52:09.535Z,26.17
2023-01-17T07:57:13.610Z,30.93
2023-01-17T08:02:17.989Z,33.45
2023-01-17T08:07:20.418Z,27.85
2023-01-17T08:12:25.973Z,30.27
2023-01-17T08:17:28.454Z,29.70
2023-01-17T08:22:31.068Z,29.50
2023-01-17T08:27:36.334Z,26.77
2023-01-17T08:32:40.674Z,28.90
2023-01-17T08:37:43.340Z,27.13
2023-01-17T08:42:54.189Z,17.67
2023-01-17T08:47:58.420Z,14.48
2023-01-17T08:53:01.328Z,11.00
2023-01-17T08:58:05.259Z,10.90
2023-01-17T09:03:10.421Z,14.05
2023-01-17T09:08:12.961Z,7.63
2023-01-17T09:13:16.778Z,9.30
2023-01-17T09:18:19.179Z,7.80
2023-01-17T09:23:21.735Z,7.63
2023-01-17T09:28:25.943Z,8.73
2023-01-17T09:33:28.411Z,6.70
2023-01-17T09:38:31.110Z,8.30
2023-01-17T09:43:40.844Z,10.50
2023-01-17T09:48:44.012Z,8.75
2023-01-17T09:53:46.596Z,7.45
2023-01-17T09:58:53.755Z,19.38
2023-01-17T10:04:05.983Z,9.65
2023-01-17T10:09:22.570Z,9.90
2023-01-17T10:14:33.562Z,13.27
2023-01-17T10:19:46.157Z,10.70
2023-01-17T10:24:59.913Z,12.93
2023-01-17T10:30:05.013Z,13.88
2023-01-17T10:35:14.946Z,12.43
2023-01-17T10:40:21.592Z,15.15
2023-01-17T10:45:28.901Z,15.88
2023-01-17T10:50:34.581Z,15.18
2023-01-17T10:55:40.129Z,18.20
2023-01-17T11:00:47.077Z,12.40
2023-01-17T11:06:04.473Z,15.82
2023-01-17T11:11:06.983Z,14.93
2023-01-17T11:16:11.613Z,17.25
2023-01-17T11:21:16.046Z,13.20
2023-01-17T11:26:27.347Z,14.93
2023-01-17T11:31:32.137Z,16.27
2023-01-17T11:36:34.658Z,13.73
2023-01-17T11:41:38.254Z,11.88
2023-01-17T11:51:44.670Z,12.30
2023-01-17T11:56:47.168Z,11.98
2023-01-17T12:01:55.924Z,14.80
2023-01-17T12:07:07.031Z,11.40
2023-01-17T12:12:30.570Z,7.65
2023-01-17T12:17:39.002Z,8.35
2023-01-17T12:22:46.934Z,5.57
2023-01-17T12:27:53.445Z,7.68
2023-01-17T12:33:02.879Z,8.85
2023-01-17T12:38:08.490Z,8.13
2023-01-17T12:43:15.417Z,8.00
2023-01-17T12:48:18.646Z,7.72
2023-01-17T12:53:27.241Z,4.30
2023-01-17T12:58:35.071Z,6.03
2023-01-17T13:03:43.473Z,3.95
2023-01-17T13:08:49.708Z,6.78
2023-01-17T13:13:53.412Z,2.78
2023-01-17T13:18:56.590Z,8.75
2023-01-17T13:24:10.028Z,3.38
2023-01-17T13:29:17.669Z,3.05
2023-01-17T13:34:34.009Z,2.63
2023-01-17T13:39:46.895Z,2.00
2023-01-17T13:44:49.630Z,3.08
2023-01-17T13:49:56.583Z,4.55
2023-01-17T13:55:01.815Z,4.22
2023-01-17T14:00:40.070Z,2.92
2023-01-17T14:05:49.339Z,5.93
2023-01-17T14:10:53.844Z,4.45
2023-01-17T14:15:56.266Z,2.08
2023-01-17T14:21:11.171Z,7.13
2023-01-17T14:26:19.548Z,2.10
2023-01-17T14:31:22.959Z,4.45
2023-01-17T14:41:30.413Z,4.05
2023-01-17T14:46:33.327Z,2.92
2023-01-17T14:51:39.351Z,4.18
2023-01-17T14:56:43.193Z,2.55
2023-01-17T15:02:06.010Z,6.93
2023-01-17T15:07:14.519Z,2.60
2023-01-17T15:12:19.489Z,1.85
2023-01-17T15:17:24.482Z,4.03
2023-01-17T15:22:30.054Z,2.78
2023-01-17T15:27:34.165Z,7.43
2023-01-17T15:32:37.919Z,8.52
2023-01-17T15:37:41.900Z,37.83
2023-01-17T15:42:47.761Z,7.28
2023-01-17T15:47:50.516Z,9.02
2023-01-17T15:52:54.337Z,26.07
2023-01-17T15:57:58.251Z,7.78
2023-01-17T16:03:01.096Z,7.45
2023-01-17T16:08:23.459Z,8.07
2023-01-17T16:13:27.374Z,3.58
2023-01-17T16:18:29.901Z,2.50
2023-01-17T16:23:32.414Z,2.78
2023-01-17T16:28:36.373Z,4.35
2023-01-17T16:33:39.270Z,4.50
2023-01-17T16:38:42.186Z,6.83
2023-01-17T16:43:46.038Z,7.40
2023-01-17T16:48:48.670Z,10.70
2023-01-17T16:53:52.211Z,52.37
2023-01-17T17:03:58.541Z,27.67
2023-01-17T17:09:01.065Z,11.77
2023-01-17T17:14:03.982Z,6.80
2023-01-17T17:19:07.924Z,10.02
2023-01-17T17:24:12.754Z,9.68
2023-01-17T17:29:16.220Z,6.47
2023-01-17T17:34:20.067Z,13.50
2023-01-17T17:39:22.533Z,12.13
2023-01-17T17:44:27.330Z,22.38
2023-01-17T17:49:31.158Z,21.38
2023-01-17T17:54:33.932Z,14.82
2023-01-17T17:59:36.393Z,21.73
2023-01-17T18:04:40.226Z,16.08
2023-01-17T18:09:42.943Z,18.45
2023-01-17T18:14:45.384Z,15.80
2023-01-17T18:19:49.275Z,10.10
2023-01-17T18:24:52.722Z,18.27
2023-01-17T18:29:55.185Z,41.63
2023-01-17T18:35:03.188Z,39.20
2023-01-17T18:40:07.047Z,15.35
2023-01-17T18:45:11.785Z,19.15
2023-01-17T18:50:17.936Z,14.13
2023-01-17T18:55:41.299Z,15.07
2023-01-17T19:00:43.822Z,16.70
2023-01-17T19:05:48.287Z,17.20
2023-01-17T19:10:50.777Z,17.67
2023-01-17T19:15:53.558Z,12.25
2023-01-17T19:20:57.704Z,12.27
2023-01-17T19:26:00.174Z,14.25
2023-01-17T19:31:03.398Z,15.82
2023-01-17T19:36:08.990Z,17.35
2023-01-17T19:41:14.828Z,14.57
2023-01-17T19:46:19.588Z,16.38
2023-01-17T19:51:23.805Z,17.55
2023-01-17T19:56:27.306Z,13.63
2023-01-17T20:06:35.171Z,13.77
2023-01-17T20:11:37.883Z,20.45
2023-01-17T20:16:40.338Z,11.40
2023-01-17T20:21:44.225Z,12.98
2023-01-17T20:26:46.667Z,11.18
2023-01-17T20:31:52.409Z,10.45
2023-01-17T20:36:57.976Z,10.27
2023-01-17T20:42:00.539Z,11.95
2023-01-17T20:47:02.939Z,11.77
2023-01-17T20:52:16.996Z,10.18
2023-01-17T21:02:21.876Z,17.38
2023-01-17T21:07:25.826Z,14.80
2023-01-17T21:12:28.597Z,13.55
2023-01-17T21:17:31.116Z,17.40
2023-01-17T21:22:34.932Z,17.47
2023-01-17T21:27:37.619Z,13.13
2023-01-17T21:32:44.676Z,11.43
2023-01-17T21:38:07.899Z,10.50
2023-01-17T21:43:12.097Z,14.13
2023-01-17T21:48:14.705Z,14.90
2023-01-17T21:53:17.362Z,14.57
2023-01-17T21:58:38.524Z,11.38
2023-01-17T22:03:41.243Z,14.35
2023-01-17T22:08:44.095Z,17.37
2023-01-17T22:13:48.224Z,16.85
2023-01-17T22:18:51.124Z,19.35
2023-01-17T22:23:54.395Z,82.65
2023-01-17T22:29:00.618Z,30.70
2023-01-17T22:34:07.003Z,18.90
2023-01-17T22:39:10.491Z,16.67
2023-01-17T22:44:14.309Z,16.50
2023-01-17T22:49:16.934Z,14.30
2023-01-17T22:54:20.291Z,14.27
2023-01-17T22:59:24.180Z,14.18
2023-01-17T23:04:28.225Z,15.05
2023-01-17T23:09:30.806Z,13.48
2023-01-17T23:14:50.050Z,14.87
2023-01-17T23:19:54.619Z,18.70
2023-01-17T23:24:57.955Z,15.10
2023-01-17T23:30:01.885Z,16.08
2023-01-17T23:35:04.441Z,16.10
2023-01-17T23:40:07.519Z,19.20
2023-01-17T23:45:11.739Z,20.80
2023-01-17T23:50:14.328Z,15.55
2023-01-17T23:55:17.336Z,14.37
